createdAt,value
2023-04-05T00:01:27.050Z,5.03
2023-04-05T00:03:54.971Z,5.10
2023-04-05T00:06:22.603Z,5.07
2023-04-05T00:08:50.277Z,4.57
2023-04-05T00:11:18.420Z,4.33
2023-04-05T00:13:45.901Z,5.47
2023-04-05T00:16:13.607Z,5.40
2023-04-05T00:18:41.163Z,4.63
2023-04-05T00:21:08.790Z,5.50
2023-04-05T00:23:36.601Z,4.93
2023-04-05T00:26:04.297Z,5.00
2023-04-05T00:28:31.868Z,4.77
2023-04-05T00:30:59.475Z,5.60
2023-04-05T00:33:26.978Z,5.27
2023-04-05T00:35:54.650Z,5.53
2023-04-05T00:38:22.206Z,5.37
2023-04-05T00:40:49.845Z,5.47
2023-04-05T00:43:17.300Z,5.30
2023-04-05T00:45:44.989Z,5.40
2023-04-05T00:48:12.901Z,5.80
2023-04-05T00:50:40.676Z,5.30
2023-04-05T00:53:08.317Z,5.77
2023-04-05T00:55:36.939Z,5.17
2023-04-05T00:58:04.469Z,5.77
2023-04-05T01:00:32.091Z,5.80
2023-04-05T01:03:00.924Z,6.07
2023-04-05T01:05:40.983Z,5.70
2023-04-05T01:08:08.527Z,5.07
2023-04-05T01:10:37.362Z,5.90
2023-04-05T01:13:06.550Z,5.47
2023-04-05T01:15:34.114Z,6.03
2023-04-05T01:18:01.687Z,5.10
2023-04-05T01:20:31.344Z,5.57
2023-04-05T01:23:11.090Z,5.47
2023-04-05T01:25:53.914Z,5.73
2023-04-05T01:28:40.345Z,5.20
2023-04-05T01:31:11.642Z,5.80
2023-04-05T01:33:48.835Z,5.83
2023-04-05T01:36:22.409Z,5.53
2023-04-05T01:38:50.996Z,5.63
2023-04-05T01:41:18.550Z,5.83
2023-04-05T01:43:46.910Z,6.00
2023-04-05T01:46:14.525Z,6.43
2023-04-05T01:48:42.101Z,5.57
2023-04-05T01:51:09.593Z,5.40
2023-04-05T01:53:37.212Z,5.60
2023-04-05T01:56:04.818Z,5.40
2023-04-05T01:58:32.340Z,6.53
2023-04-05T02:00:59.857Z,5.77
2023-04-05T02:03:27.723Z,5.57
2023-04-05T02:05:55.404Z,5.60
2023-04-05T02:08:22.967Z,5.37
2023-04-05T02:10:50.481Z,6.53
2023-04-05T02:13:18.061Z,6.70
2023-04-05T02:15:49.230Z,6.37
2023-04-05T02:18:17.316Z,5.73
2023-04-05T02:20:44.804Z,6.07
2023-04-05T02:23:12.339Z,6.33
2023-04-05T02:25:39.833Z,7.43
2023-04-05T02:28:07.685Z,6.73
2023-04-05T02:30:35.380Z,6.27
2023-04-05T02:33:02.978Z,6.43
2023-04-05T02:35:30.538Z,6.50
2023-04-05T02:37:58.161Z,6.13
2023-04-05T02:40:25.758Z,6.60
2023-04-05T02:42:53.362Z,5.90
2023-04-05T02:45:20.860Z,6.83
2023-04-05T02:47:48.434Z,6.27
2023-04-05T02:50:15.987Z,6.20
2023-04-05T02:52:43.529Z,7.03
2023-04-05T02:55:11.017Z,6.83
2023-04-05T02:57:38.580Z,7.20
2023-04-05T03:00:06.508Z,7.03
2023-04-05T03:02:34.109Z,7.67
2023-04-05T03:05:01.627Z,6.03
2023-04-05T03:07:29.302Z,7.63
2023-04-05T03:09:56.848Z,6.73
2023-04-05T03:12:24.459Z,7.03
2023-04-05T03:14:54.445Z,6.83
2023-04-05T03:17:22.060Z,7.03
2023-04-05T03:19:49.675Z,7.17
2023-04-05T03:22:17.281Z,6.70
2023-04-05T03:24:44.821Z,7.17
2023-04-05T03:27:12.377Z,6.90
2023-04-05T03:29:39.918Z,6.70
2023-04-05T03:32:07.478Z,6.90
2023-04-05T03:34:34.985Z,7.53
2023-04-05T03:37:04.023Z,6.47
2023-04-05T03:39:31.568Z,6.83
2023-04-05T03:41:59.117Z,7.00
2023-04-05T03:44:26.675Z,6.53
2023-04-05T03:46:54.379Z,6.47
2023-04-05T03:49:21.952Z,6.60
2023-04-05T03:51:49.525Z,6.63
2023-04-05T03:54:17.073Z,6.83
2023-04-05T03:56:44.635Z,8.40
2023-04-05T03:59:12.220Z,6.97
2023-04-05T04:01:39.878Z,7.33
2023-04-05T04:04:07.340Z,7.07
2023-04-05T04:06:34.921Z,7.17
2023-04-05T04:09:02.465Z,8.60
2023-04-05T04:11:30.021Z,6.23
2023-04-05T04:13:57.534Z,7.40
2023-04-05T04:16:27.375Z,7.27
2023-04-05T04:18:56.196Z,7.87
2023-04-05T04:21:23.750Z,7.80
2023-04-05T04:23:52.321Z,7.37
2023-04-05T04:26:19.800Z,7.47
2023-04-05T04:28:47.440Z,7.60
2023-04-05T04:31:14.989Z,8.03
2023-04-05T04:33:45.039Z,7.23
2023-04-05T04:36:12.700Z,6.93
2023-04-05T04:38:41.829Z,7.23
2023-04-05T04:41:12.664Z,7.93
2023-04-05T04:43:40.461Z,7.50
2023-04-05T04:46:08.016Z,8.10
2023-04-05T04:48:35.623Z,7.60
2023-04-05T04:51:03.291Z,7.77
2023-04-05T04:53:30.916Z,8.17
2023-04-05T04:55:58.408Z,7.83
2023-04-05T04:58:25.966Z,7.47
2023-04-05T05:00:53.561Z,7.80
2023-04-05T05:03:21.165Z,8.03
2023-04-05T05:05:50.360Z,8.53
2023-04-05T05:08:21.569Z,7.13
2023-04-05T05:10:52.590Z,8.20
2023-04-05T05:13:20.344Z,8.37
2023-04-05T05:15:47.878Z,8.17
2023-04-05T05:18:15.480Z,9.67
2023-04-05T05:20:43.235Z,9.47
2023-04-05T05:23:10.976Z,8.57
2023-04-05T05:25:38.801Z,8.63
2023-04-05T05:28:06.489Z,7.97
2023-04-05T05:30:34.003Z,8.50
2023-04-05T05:33:01.743Z,8.27
2023-04-05T05:35:29.443Z,7.93
2023-04-05T05:37:57.007Z,6.97
2023-04-05T05:40:24.625Z,7.53
2023-04-05T05:42:52.146Z,8.10
2023-04-05T05:45:19.627Z,7.33
2023-04-05T05:47:47.345Z,7.10
2023-04-05T05:50:14.921Z,7.10
2023-04-05T05:52:42.520Z,7.40
2023-04-05T05:55:10.123Z,6.43
2023-04-05T05:57:37.714Z,7.17
2023-04-05T06:00:05.506Z,7.37
2023-04-05T06:02:33.236Z,6.60
2023-04-05T06:05:00.871Z,6.33
2023-04-05T06:07:28.625Z,6.03
2023-04-05T06:09:56.166Z,6.93
2023-04-05T06:12:23.778Z,7.17
2023-04-05T06:14:51.342Z,6.70
2023-04-05T06:17:18.977Z,7.00
2023-04-05T06:19:46.504Z,7.03
2023-04-05T06:22:14.147Z,6.50
2023-04-05T06:24:41.624Z,5.67
2023-04-05T06:27:09.234Z,6.80
2023-04-05T06:29:36.773Z,7.07
2023-04-05T06:32:04.500Z,6.90
2023-04-05T06:34:32.124Z,6.07
2023-04-05T06:36:59.658Z,6.80
2023-04-05T06:39:27.149Z,6.87
2023-04-05T06:41:54.754Z,6.77
2023-04-05T06:44:22.254Z,6.40
2023-04-05T06:46:49.862Z,6.70
2023-04-05T06:49:17.444Z,6.43
2023-04-05T06:51:47.338Z,6.80
2023-04-05T06:54:14.921Z,6.47
2023-04-05T06:56:42.516Z,7.40
2023-04-05T06:59:10.244Z,6.73
2023-04-05T07:01:37.865Z,6.97
2023-04-05T07:04:05.574Z,6.70
2023-04-05T07:06:33.099Z,6.67
2023-04-05T07:09:00.692Z,6.33
2023-04-05T07:11:28.222Z,6.40
2023-04-05T07:13:55.813Z,7.00
2023-04-05T07:16:23.830Z,5.80
2023-04-05T07:18:51.627Z,6.27
2023-04-05T07:21:19.179Z,6.50
2023-04-05T07:23:46.825Z,6.23
2023-04-05T07:26:14.372Z,7.60
2023-04-05T07:28:42.091Z,6.37
2023-04-05T07:31:09.654Z,8.02
2023-04-05T07:33:37.184Z,7.80
2023-04-05T07:36:04.834Z,6.90
2023-04-05T07:38:32.443Z,6.60
2023-04-05T07:40:59.951Z,6.50
2023-04-05T07:43:27.529Z,6.67
2023-04-05T07:46:01.873Z,7.13
2023-04-05T07:48:29.608Z,6.90
2023-04-05T07:50:58.184Z,7.00
2023-04-05T07:53:25.750Z,6.43
2023-04-05T07:55:53.338Z,6.63
2023-04-05T07:58:20.919Z,6.80
2023-04-05T08:00:48.421Z,6.90
2023-04-05T08:03:16.085Z,6.83
2023-04-05T08:05:43.667Z,6.57
2023-04-05T08:08:11.246Z,6.90
2023-04-05T08:10:39.702Z,6.70
2023-04-05T08:13:07.473Z,6.90
2023-04-05T08:15:35.353Z,8.20
2023-04-05T08:18:03.013Z,8.37
2023-04-05T08:20:30.601Z,7.57
2023-04-05T08:22:58.187Z,8.50
2023-04-05T08:25:25.739Z,7.13
2023-04-05T08:27:53.267Z,7.53
2023-04-05T08:30:20.766Z,7.50
2023-04-05T08:32:48.436Z,7.77
2023-04-05T08:35:16.180Z,7.23
2023-04-05T08:37:43.744Z,7.83
2023-04-05T08:40:12.212Z,8.03
2023-04-05T08:42:47.052Z,7.40
2023-04-05T08:45:15.290Z,7.13
2023-04-05T08:47:42.862Z,6.90
2023-04-05T08:50:11.276Z,7.40
2023-04-05T08:52:39.017Z,6.47
2023-04-05T08:55:06.995Z,6.53
2023-04-05T08:57:37.957Z,6.53
2023-04-05T09:00:07.912Z,6.80
2023-04-05T09:02:35.991Z,7.57
2023-04-05T09:05:03.758Z,7.10
2023-04-05T09:07:32.079Z,7.30
2023-04-05T09:10:01.303Z,7.50
2023-04-05T09:12:29.084Z,7.43
2023-04-05T09:14:56.667Z,7.53
2023-04-05T09:17:24.523Z,5.73
2023-04-05T09:19:52.219Z,5.47
2023-04-05T09:22:19.803Z,4.97
2023-04-05T09:24:47.628Z,4.80
2023-04-05T09:27:16.107Z,5.40
2023-04-05T09:29:44.796Z,5.17
2023-04-05T09:32:13.033Z,5.60
2023-04-05T09:34:41.939Z,6.40
2023-04-05T09:37:20.316Z,6.20
2023-04-05T09:39:49.680Z,4.90
2023-04-05T09:42:18.346Z,5.57
2023-04-05T09:45:02.587Z,5.70
2023-04-05T09:47:31.658Z,5.37
2023-04-05T09:49:59.817Z,4.77
2023-04-05T09:52:32.006Z,5.70
2023-04-05T09:55:00.876Z,4.20
2023-04-05T09:57:28.793Z,5.20
2023-04-05T09:59:56.460Z,5.07
2023-04-05T10:02:24.391Z,5.07
2023-04-05T10:04:52.304Z,4.93
2023-04-05T10:07:20.432Z,5.20
2023-04-05T10:09:48.706Z,5.17
2023-04-05T10:12:22.206Z,4.07
2023-04-05T10:14:49.881Z,5.23
2023-04-05T10:17:23.440Z,5.10
2023-04-05T10:19:57.035Z,5.53
2023-04-05T10:22:29.597Z,5.27
2023-04-05T10:25:08.920Z,5.13
2023-04-05T10:27:50.555Z,5.50
2023-04-05T10:30:18.802Z,4.73
2023-04-05T10:32:46.415Z,5.53
2023-04-05T10:35:17.244Z,5.70
2023-04-05T10:38:03.587Z,6.35
2023-04-05T10:40:33.442Z,6.00
2023-04-05T10:43:01.071Z,5.27
2023-04-05T10:45:29.309Z,5.33
2023-04-05T10:48:15.452Z,5.03
2023-04-05T10:50:43.631Z,5.57
2023-04-05T10:53:11.990Z,5.60
2023-04-05T10:55:39.875Z,5.63
2023-04-05T10:58:07.735Z,5.67
2023-04-05T11:00:35.512Z,5.77
2023-04-05T11:03:03.120Z,4.93
2023-04-05T11:05:34.754Z,5.43
2023-04-05T11:08:08.637Z,5.60
2023-04-05T11:10:37.284Z,5.10
2023-04-05T11:13:06.123Z,5.83
2023-04-05T11:15:34.431Z,5.17
2023-04-05T11:18:08.335Z,5.00
2023-04-05T11:20:45.013Z,5.30
2023-04-05T11:23:13.517Z,4.87
2023-04-05T11:25:41.676Z,5.80
2023-04-05T11:28:09.338Z,5.63
2023-04-05T11:30:49.073Z,5.43
2023-04-05T11:33:55.634Z,6.07
2023-04-05T11:36:31.507Z,5.70
2023-04-05T11:39:19.508Z,5.57
2023-04-05T11:41:48.239Z,5.70
2023-04-05T11:44:16.127Z,6.20
2023-04-05T11:46:43.983Z,6.47
2023-04-05T11:49:11.545Z,6.37
2023-04-05T11:51:41.162Z,6.20
2023-04-05T11:54:08.930Z,6.33
2023-04-05T11:56:39.034Z,6.13
2023-04-05T11:59:06.704Z,5.97
2023-04-05T12:01:34.283Z,6.33
2023-04-05T12:04:01.989Z,5.23
2023-04-05T12:06:29.637Z,5.90
2023-04-05T12:08:57.251Z,5.57
2023-04-05T12:11:25.634Z,5.30
2023-04-05T12:14:02.734Z,5.33
2023-04-05T12:16:30.402Z,6.47
2023-04-05T12:18:58.698Z,6.03
2023-04-05T12:21:26.919Z,7.17
2023-04-05T12:23:54.879Z,6.30
2023-04-05T12:26:22.836Z,6.67
2023-04-05T12:28:50.878Z,6.63
2023-04-05T12:31:18.524Z,7.30
2023-04-05T12:33:46.074Z,6.40
2023-04-05T12:36:14.701Z,6.57
2023-04-05T12:38:42.492Z,7.17
2023-04-05T12:41:10.245Z,7.03
2023-04-05T12:43:41.362Z,6.90
2023-04-05T12:46:12.368Z,8.00
2023-04-05T12:48:42.435Z,6.83
2023-04-05T12:51:18.941Z,6.60
2023-04-05T12:53:47.226Z,7.10
2023-04-05T12:56:16.252Z,6.80
2023-04-05T12:58:43.847Z,7.10
2023-04-05T13:01:11.416Z,7.03
2023-04-05T13:03:39.047Z,6.57
2023-04-05T13:06:06.696Z,7.03
2023-04-05T13:08:34.310Z,6.60
2023-04-05T13:11:01.850Z,7.00
2023-04-05T13:13:29.495Z,7.67
2023-04-05T13:15:57.007Z,7.10
2023-04-05T13:18:24.611Z,7.07
2023-04-05T13:20:52.166Z,6.33
2023-04-05T13:23:19.877Z,6.87
2023-04-05T13:25:47.403Z,6.70
2023-04-05T13:28:15.016Z,6.13
2023-04-05T13:30:42.560Z,6.20
2023-04-05T13:33:10.147Z,7.43
2023-04-05T13:35:37.823Z,7.70
2023-04-05T13:38:05.418Z,7.27
2023-04-05T13:40:33.162Z,7.20
2023-04-05T13:43:00.830Z,7.20
2023-04-05T13:45:28.371Z,7.47
2023-04-05T13:47:56.274Z,7.77
2023-04-05T13:50:24.201Z,7.23
2023-04-05T13:52:54.897Z,7.20
2023-04-05T13:55:23.375Z,6.73
2023-04-05T13:57:50.904Z,7.07
2023-04-05T14:00:18.725Z,7.87
2023-04-05T14:02:46.498Z,7.23
2023-04-05T14:05:14.134Z,8.20
2023-04-05T14:07:41.929Z,7.57
2023-04-05T14:10:09.720Z,8.00
2023-04-05T14:12:37.245Z,7.83
2023-04-05T14:15:05.060Z,7.63
2023-04-05T14:17:32.589Z,7.67
2023-04-05T14:20:00.257Z,8.00
2023-04-05T14:22:27.829Z,7.70
2023-04-05T14:24:55.400Z,7.90
2023-04-05T14:27:22.994Z,7.20
2023-04-05T14:29:50.617Z,7.83
2023-04-05T14:32:18.181Z,7.87
2023-04-05T14:34:45.787Z,7.37
2023-04-05T14:37:13.340Z,7.97
2023-04-05T14:39:40.956Z,7.43
2023-04-05T14:42:08.535Z,8.10
2023-04-05T14:44:36.158Z,7.67
2023-04-05T14:47:03.700Z,7.57
2023-04-05T14:49:31.360Z,7.60
2023-04-05T14:51:58.966Z,7.40
2023-04-05T14:54:26.651Z,7.03
2023-04-05T14:56:54.251Z,6.60
2023-04-05T14:59:21.919Z,7.70
2023-04-05T15:01:49.601Z,8.23
2023-04-05T15:04:17.306Z,7.37
2023-04-05T15:06:44.855Z,8.03
2023-04-05T15:09:12.446Z,8.27
2023-04-05T15:11:40.524Z,8.03
2023-04-05T15:14:11.498Z,8.00
2023-04-05T15:16:45.955Z,8.10
2023-04-05T15:19:16.531Z,7.50
2023-04-05T15:21:44.229Z,8.30
2023-04-05T15:24:11.786Z,8.63
2023-04-05T15:26:39.469Z,7.80
2023-04-05T15:29:07.059Z,8.40
2023-04-05T15:31:35.621Z,8.50
2023-04-05T15:34:03.469Z,8.17
2023-04-05T15:36:31.164Z,8.03
2023-04-05T15:38:58.820Z,7.70
2023-04-05T15:41:26.468Z,7.83
2023-04-05T15:43:54.070Z,7.50
2023-04-05T15:46:21.745Z,7.70
2023-04-05T15:48:49.445Z,7.77
2023-04-05T15:51:17.137Z,7.80
2023-04-05T15:53:44.827Z,7.20
2023-04-05T15:56:15.006Z,7.27
2023-04-05T15:58:42.805Z,7.33
2023-04-05T16:01:10.549Z,7.87
2023-04-05T16:03:38.388Z,7.60
2023-04-05T16:06:06.261Z,6.90
2023-04-05T16:08:34.410Z,7.37
2023-04-05T16:11:02.043Z,6.87
2023-04-05T16:13:29.683Z,7.10
2023-04-05T16:15:57.494Z,6.87
2023-04-05T16:18:25.172Z,8.00
2023-04-05T16:20:57.320Z,7.43
2023-04-05T16:23:25.006Z,7.77
2023-04-05T16:25:52.574Z,7.83
2023-04-05T16:28:20.252Z,7.17
2023-04-05T16:30:48.318Z,7.40
2023-04-05T16:33:15.989Z,7.43
2023-04-05T16:35:43.622Z,7.73
2023-04-05T16:38:11.303Z,7.03
2023-04-05T16:40:38.918Z,6.70
2023-04-05T16:43:06.604Z,7.27
2023-04-05T16:45:34.400Z,7.33
2023-04-05T16:48:02.148Z,7.07
2023-04-05T16:50:29.887Z,7.00
2023-04-05T16:52:57.577Z,7.07
2023-04-05T16:55:25.183Z,6.87
2023-04-05T16:57:52.745Z,7.43
2023-04-05T17:00:20.454Z,7.40
2023-04-05T17:02:48.166Z,6.63
2023-04-05T17:05:16.282Z,7.20
2023-04-05T17:07:44.024Z,6.83
2023-04-05T17:10:11.754Z,6.37
2023-04-05T17:12:39.413Z,7.07
2023-04-05T17:15:07.247Z,7.60
2023-04-05T17:17:35.079Z,7.33
2023-04-05T17:20:02.718Z,6.87
2023-04-05T17:22:30.439Z,6.50
2023-04-05T17:24:58.354Z,7.53
2023-04-05T17:27:26.170Z,6.40
2023-04-05T17:29:53.815Z,7.30
2023-04-05T17:32:21.434Z,6.57
2023-04-05T17:34:49.082Z,6.80
2023-04-05T17:37:16.785Z,6.53
2023-04-05T17:39:44.363Z,6.57
2023-04-05T17:42:12.095Z,5.37
2023-04-05T17:44:39.700Z,5.40
2023-04-05T17:47:09.617Z,4.80
2023-04-05T17:49:37.872Z,5.03
2023-04-05T17:52:06.348Z,5.50
2023-04-05T17:54:34.124Z,5.00
2023-04-05T17:57:01.781Z,5.27
2023-04-05T17:59:29.611Z,4.77
2023-04-05T18:01:57.551Z,5.17
2023-04-05T18:04:25.704Z,4.70
2023-04-05T18:06:53.471Z,5.07
2023-04-05T18:09:21.206Z,5.53
2023-04-05T18:11:51.877Z,6.93
2023-04-05T18:14:19.854Z,5.93
2023-04-05T18:16:50.560Z,5.53
2023-04-05T18:19:20.606Z,5.60
2023-04-05T18:21:48.237Z,5.40
2023-04-05T18:24:15.908Z,5.90
2023-04-05T18:26:43.652Z,5.50
2023-04-05T18:29:11.302Z,5.20
2023-04-05T18:31:39.026Z,5.40
2023-04-05T18:34:06.630Z,6.40
2023-04-05T18:36:34.298Z,5.50
2023-04-05T18:39:02.289Z,5.57
2023-04-05T18:41:31.572Z,5.70
2023-04-05T18:43:59.325Z,5.67
2023-04-05T18:46:27.048Z,5.57
2023-04-05T18:48:55.087Z,5.80
2023-04-05T18:51:23.517Z,5.27
2023-04-05T18:53:51.474Z,5.77
2023-04-05T18:56:19.180Z,5.50
2023-04-05T18:58:46.774Z,5.63
2023-04-05T19:01:14.428Z,5.67
2023-04-05T19:03:42.425Z,6.63
2023-04-05T19:06:10.257Z,6.33
2023-04-05T19:08:37.933Z,5.83
2023-04-05T19:11:05.917Z,6.07
2023-04-05T19:13:33.838Z,5.63
2023-04-05T19:16:01.437Z,6.30
2023-04-05T19:18:29.116Z,5.97
2023-04-05T19:21:00.626Z,6.60
2023-04-05T19:23:28.890Z,6.63
2023-04-05T19:25:56.839Z,6.43
2023-04-05T19:28:24.852Z,7.10
2023-04-05T19:30:52.605Z,7.70
2023-04-05T19:33:21.759Z,6.93
2023-04-05T19:35:49.737Z,6.47
2023-04-05T19:38:17.326Z,7.10
2023-04-05T19:40:44.955Z,6.53
2023-04-05T19:43:13.051Z,7.70
2023-04-05T19:45:40.679Z,7.47
2023-04-05T19:48:27.150Z,6.87
2023-04-05T19:50:56.425Z,6.97
2023-04-05T19:53:43.629Z,7.70
2023-04-05T19:56:21.372Z,6.67
2023-04-05T19:59:18.157Z,6.77
2023-04-05T20:01:46.242Z,7.37
2023-04-05T20:04:17.745Z,7.43
2023-04-05T20:06:46.516Z,7.10
2023-04-05T20:09:14.445Z,7.03
2023-04-05T20:11:50.225Z,7.30
2023-04-05T20:14:17.824Z,7.03
2023-04-05T20:16:45.389Z,7.93
2023-04-05T20:19:13.037Z,8.67
2023-04-05T20:21:40.604Z,8.33
2023-04-05T20:24:09.187Z,8.03
2023-04-05T20:26:36.765Z,8.60
2023-04-05T20:29:07.817Z,7.50
2023-04-05T20:31:39.225Z,7.90
2023-04-05T20:34:10.501Z,6.77
2023-04-05T20:36:39.304Z,7.23
2023-04-05T20:39:07.249Z,8.10
2023-04-05T20:41:35.211Z,7.80
2023-04-05T20:44:02.768Z,7.80
2023-04-05T20:46:30.483Z,7.10
2023-04-05T20:48:58.271Z,7.83
2023-04-05T20:51:25.911Z,8.40
2023-04-05T20:53:53.650Z,7.90
2023-04-05T20:56:21.314Z,8.17
2023-04-05T20:58:48.937Z,8.17
2023-04-05T21:01:16.545Z,7.77
2023-04-05T21:03:44.369Z,8.37
2023-04-05T21:06:12.046Z,7.73
2023-04-05T21:08:40.392Z,8.37
2023-04-05T21:11:08.441Z,8.67
2023-04-05T21:13:35.983Z,9.33
2023-04-05T21:16:03.626Z,8.10
2023-04-05T21:18:31.262Z,10.67
2023-04-05T21:20:58.925Z,9.37
2023-04-05T21:23:27.716Z,7.80
2023-04-05T21:25:58.800Z,7.23
2023-04-05T21:28:26.682Z,7.37
2023-04-05T21:30:54.373Z,8.60
2023-04-05T21:33:22.028Z,7.43
2023-04-05T21:35:49.609Z,6.27
2023-04-05T21:38:17.246Z,7.30
2023-04-05T21:40:44.966Z,6.70
2023-04-05T21:43:13.294Z,5.73
2023-04-05T21:45:40.979Z,6.37
2023-04-05T21:48:08.971Z,6.40
2023-04-05T21:50:37.196Z,6.80
2023-04-05T21:53:05.291Z,6.47
2023-04-05T21:55:32.892Z,6.50
2023-04-05T21:58:00.474Z,6.87
2023-04-05T22:00:28.104Z,6.20
2023-04-05T22:02:59.255Z,6.93
2023-04-05T22:05:37.231Z,5.87
2023-04-05T22:08:06.461Z,7.13
2023-04-05T22:10:35.856Z,6.67
2023-04-05T22:13:04.030Z,6.13
2023-04-05T22:15:31.595Z,5.77
2023-04-05T22:17:59.504Z,6.50
2023-04-05T22:20:27.230Z,6.67
2023-04-05T22:22:55.438Z,6.60
2023-04-05T22:25:23.065Z,6.57
2023-04-05T22:27:50.655Z,6.47
2023-04-05T22:30:18.232Z,6.83
2023-04-05T22:32:45.892Z,6.37
2023-04-05T22:35:13.433Z,7.00
2023-04-05T22:37:40.980Z,6.90
2023-04-05T22:40:08.834Z,7.27
2023-04-05T22:42:36.479Z,7.10
2023-04-05T22:45:07.076Z,6.90
2023-04-05T22:47:34.934Z,7.13
2023-04-05T22:50:02.519Z,7.10
2023-04-05T22:52:30.137Z,7.33
2023-04-05T22:54:57.647Z,7.50
2023-04-05T22:57:25.359Z,7.20
2023-04-05T22:59:52.958Z,7.57
2023-04-05T23:02:20.553Z,7.50
2023-04-05T23:04:48.123Z,6.53
2023-04-05T23:07:15.766Z,6.83
2023-04-05T23:09:43.620Z,7.00
2023-04-05T23:12:11.263Z,7.50
2023-04-05T23:14:38.889Z,7.70
2023-04-05T23:17:09.459Z,6.40
2023-04-05T23:19:36.992Z,6.70
2023-04-05T23:22:04.528Z,7.07
2023-04-05T23:24:32.104Z,6.80
2023-04-05T23:26:59.693Z,8.27
2023-04-05T23:29:27.364Z,7.23
2023-04-05T23:31:54.902Z,6.80
2023-04-05T23:34:22.716Z,7.43
2023-04-05T23:36:50.247Z,6.80
2023-04-05T23:39:17.865Z,7.70
2023-04-05T23:41:45.468Z,7.90
2023-04-05T23:44:13.071Z,7.63
2023-04-05T23:46:40.640Z,7.33
2023-04-05T23:49:08.537Z,7.17
2023-04-05T23:51:36.257Z,6.80
2023-04-05T23:54:03.838Z,7.00
2023-04-05T23:56:31.391Z,6.80
2023-04-05T23:58:59.173Z,7.20
